Time;durP1;ratioP1;P1;durP2;ratioP2;P2;SDS_P1;SDS_P2;PMS_P1;PMS_P2;Temp;Humidity;BMP_temperature;BMP_pressure;BME280_temperature;BME280_humidity;BME280_pressure;Samples;Min_cycle;Max_cycle;Signal;HPM_P1;HPM_P2
2022/01/04 00:00:58;;;;;;;57.05;20.20;;;8.10;99.90;;;;;;5065994;28;20597;-72
2022/01/04 00:03:23;;;;;;;49.88;17.98;;;8.10;99.90;;;;;;5067966;28;20059;-72
2022/01/04 00:05:49;;;;;;;49.10;18.58;;;8.10;99.90;;;;;;5064523;28;20056;-71
2022/01/04 00:08:15;;;;;;;32.08;17.60;;;8.10;99.90;;;;;;5067353;28;20063;-72
2022/01/04 00:10:40;;;;;;;47.47;18.38;;;8.10;99.90;;;;;;5065831;28;20037;-72
2022/01/04 00:13:22;;;;;;;35.95;18.08;;;8.20;99.90;;;;;;5064549;28;20049;-72
2022/01/04 00:15:48;;;;;;;36.58;17.25;;;8.20;99.90;;;;;;5063466;28;20036;-72
2022/01/04 00:18:16;;;;;;;39.28;18.45;;;8.20;99.90;;;;;;5064156;28;20504;-72
2022/01/04 00:20:41;;;;;;;48.90;18.95;;;8.20;99.90;;;;;;5063162;28;20394;-72
2022/01/04 00:23:07;;;;;;;32.20;17.15;;;8.10;99.90;;;;;;5065003;28;20048;-72
2022/01/04 00:25:33;;;;;;;55.40;18.65;;;8.20;99.90;;;;;;5060406;28;20047;-72
2022/01/04 00:28:00;;;;;;;32.35;16.05;;;8.20;99.90;;;;;;5067949;28;20041;-71
2022/01/04 00:30:28;;;;;;;52.10;16.42;;;8.20;99.90;;;;;;5064688;28;20505;-71
2022/01/04 00:32:55;;;;;;;41.38;16.30;;;8.20;99.90;;;;;;5067378;28;20434;-72
2022/01/04 00:35:21;;;;;;;49.00;17.27;;;8.20;99.90;;;;;;5065579;28;20044;-71
2022/01/04 00:37:47;;;;;;;45.38;17.83;;;8.30;99.90;;;;;;5066579;28;20051;-72
2022/01/04 00:40:13;;;;;;;39.80;15.98;;;8.30;99.90;;;;;;5054202;28;20049;-72
2022/01/04 00:42:38;;;;;;;45.17;17.92;;;8.30;99.90;;;;;;5065774;28;20040;-72
2022/01/04 00:45:05;;;;;;;41.15;16.80;;;8.30;99.90;;;;;;5063634;28;20049;-72
2022/01/04 00:47:44;;;;;;;40.10;14.75;;;8.30;99.90;;;;;;5065912;28;20444;-72
2022/01/04 00:50:10;;;;;;;45.78;15.50;;;8.30;99.90;;;;;;5068556;28;20102;-72
2022/01/04 00:52:36;;;;;;;36.85;15.98;;;8.40;99.90;;;;;;5071162;28;20049;-72
2022/01/04 00:55:03;;;;;;;43.55;15.50;;;8.40;99.90;;;;;;5069827;28;20040;-71
2022/01/04 00:57:28;;;;;;;36.35;16.50;;;8.40;99.90;;;;;;5063245;28;20515;-72
2022/01/04 00:59:54;;;;;;;38.15;14.55;;;8.30;99.90;;;;;;5071556;28;20063;-72
2022/01/04 01:02:20;;;;;;;33.97;15.10;;;8.30;99.90;;;;;;5071162;28;20044;-72
2022/01/04 01:04:47;;;;;;;42.95;15.90;;;8.30;99.90;;;;;;5069899;28;20052;-72
2022/01/04 01:07:13;;;;;;;32.53;15.63;;;8.30;99.90;;;;;;5072327;28;20131;-71
2022/01/04 01:09:52;;;;;;;33.17;14.75;;;8.30;99.90;;;;;;5065934;28;20155;-72
2022/01/04 01:12:18;;;;;;;41.25;14.93;;;8.20;99.90;;;;;;5069029;28;20572;-72
2022/01/04 01:14:44;;;;;;;39.60;16.35;;;8.20;99.90;;;;;;5067074;28;20051;-72
2022/01/04 01:17:09;;;;;;;37.72;14.63;;;8.20;99.90;;;;;;5068524;28;20482;-72
2022/01/04 01:19:37;;;;;;;45.92;16.02;;;8.20;99.90;;;;;;5070024;28;20078;-72
2022/01/04 01:22:03;;;;;;;43.38;16.08;;;8.20;99.90;;;;;;5068025;28;20047;-72
2022/01/04 01:24:29;;;;;;;35.67;16.73;;;8.10;99.90;;;;;;5070689;28;20060;-72
2022/01/04 01:26:55;;;;;;;39.65;15.02;;;8.10;99.90;;;;;;5068718;28;20113;-72
2022/01/04 01:29:20;;;;;;;45.85;16.52;;;8.00;99.90;;;;;;5069089;28;20398;-72
2022/01/04 01:31:46;;;;;;;42.30;17.30;;;7.90;99.90;;;;;;5066467;28;20052;-72
2022/01/04 01:34:12;;;;;;;40.47;16.95;;;7.90;99.90;;;;;;5063936;28;20129;-72
2022/01/04 01:36:37;;;;;;;43.33;16.52;;;7.90;99.90;;;;;;5072703;28;20044;-72
2022/01/04 01:39:03;;;;;;;39.67;16.98;;;7.90;99.90;;;;;;5068108;28;20097;-72
2022/01/04 01:41:29;;;;;;;46.72;16.90;;;7.80;99.90;;;;;;5070280;28;20036;-72
2022/01/04 01:43:56;;;;;;;44.45;19.17;;;7.80;99.90;;;;;;5067537;28;20052;-72
2022/01/04 01:46:21;;;;;;;35.88;16.38;;;7.80;99.90;;;;;;5060896;28;20048;-72
2022/01/04 01:48:47;;;;;;;42.17;16.08;;;7.70;99.90;;;;;;5065277;28;20048;-72
2022/01/04 01:51:16;;;;;;;46.88;17.83;;;7.80;99.90;;;;;;5066865;28;20051;-72
2022/01/04 01:53:42;;;;;;;39.42;16.35;;;7.80;99.90;;;;;;5068327;28;20071;-72
2022/01/04 01:56:08;;;;;;;40.55;17.88;;;7.70;99.90;;;;;;5067358;28;20127;-72
2022/01/04 01:58:34;;;;;;;47.38;18.85;;;7.80;99.90;;;;;;5065988;28;20202;-72
2022/01/04 02:01:00;;;;;;;43.53;18.30;;;7.80;99.90;;;;;;5070484;28;20038;-72
2022/01/04 02:03:25;;;;;;;48.63;20.10;;;7.80;99.90;;;;;;5066811;28;20528;-72
2022/01/04 02:05:51;;;;;;;45.95;20.10;;;7.90;99.90;;;;;;5056647;28;20169;-72
2022/01/04 02:08:18;;;;;;;41.88;20.08;;;8.00;99.90;;;;;;5067740;28;20040;-72
2022/01/04 02:10:45;;;;;;;45.05;18.73;;;8.10;99.90;;;;;;5066518;28;20056;-72
2022/01/04 02:13:11;;;;;;;52.72;19.75;;;8.10;99.90;;;;;;5068390;28;20044;-72
2022/01/04 02:15:37;;;;;;;42.00;19.55;;;8.10;99.90;;;;;;5068999;28;20053;-71
2022/01/04 02:18:03;;;;;;;43.05;20.67;;;8.10;99.90;;;;;;5066657;28;20050;-72
2022/01/04 02:20:29;;;;;;;48.28;19.25;;;8.20;99.90;;;;;;5068460;28;20048;-72
2022/01/04 02:22:55;;;;;;;50.75;19.58;;;8.20;99.90;;;;;;5068862;28;20086;-72
2022/01/04 02:25:21;;;;;;;43.92;19.42;;;8.20;99.90;;;;;;5056554;28;20048;-72
2022/01/04 02:27:47;;;;;;;48.67;19.17;;;8.30;99.90;;;;;;5070639;28;20059;-72
2022/01/04 02:30:17;;;;;;;43.75;20.05;;;8.30;99.90;;;;;;5065139;28;20040;-72
2022/01/04 02:32:45;;;;;;;58.67;19.70;;;8.30;99.90;;;;;;5057711;28;20037;-72
2022/01/04 02:35:12;;;;;;;56.83;22.17;;;8.30;99.90;;;;;;5067824;28;20044;-71
2022/01/04 02:37:38;;;;;;;53.78;20.77;;;8.40;99.90;;;;;;5065090;28;20298;-72
2022/01/04 02:40:04;;;;;;;54.13;19.38;;;8.40;99.90;;;;;;5065320;28;20041;-72
2022/01/04 02:42:30;;;;;;;39.47;17.88;;;8.30;99.90;;;;;;5065432;28;20040;-72
2022/01/04 02:44:55;;;;;;;52.38;19.95;;;8.30;99.90;;;;;;5054852;28;20067;-72
2022/01/04 02:47:21;;;;;;;44.60;19.00;;;8.30;99.90;;;;;;5069999;28;20052;-72
2022/01/04 02:49:47;;;;;;;47.33;21.23;;;8.30;99.90;;;;;;5066906;28;20406;-72
2022/01/04 02:52:13;;;;;;;55.47;19.88;;;8.20;99.90;;;;;;5067306;28;20519;-72
2022/01/04 02:54:39;;;;;;;45.35;18.38;;;8.20;99.90;;;;;;5069596;28;20036;-72
2022/01/04 02:57:05;;;;;;;40.13;18.23;;;8.10;99.90;;;;;;5066524;28;20090;-71
2022/01/04 02:59:31;;;;;;;48.50;19.55;;;8.00;99.90;;;;;;5066203;28;20040;-72
2022/01/04 03:01:56;;;;;;;38.15;18.27;;;8.10;99.90;;;;;;5046946;28;20086;-72
2022/01/04 03:04:22;;;;;;;55.00;20.52;;;8.00;99.90;;;;;;5069796;28;20052;-72
2022/01/04 03:06:48;;;;;;;45.20;19.77;;;8.00;99.90;;;;;;5068270;28;20482;-72
2022/01/04 03:09:13;;;;;;;46.42;19.70;;;8.00;99.90;;;;;;5067751;28;21512;-72
2022/01/04 03:11:39;;;;;;;53.33;20.25;;;8.00;99.90;;;;;;5069165;28;20140;-72
2022/01/04 03:14:05;;;;;;;42.45;20.67;;;8.00;99.90;;;;;;5044909;28;20050;-72
2022/01/04 03:16:30;;;;;;;53.70;21.48;;;8.00;99.90;;;;;;5068399;28;20047;-72
2022/01/04 03:19:03;;;;;;;54.90;23.20;;;8.00;99.90;;;;;;5068360;28;20401;-72
2022/01/04 03:21:30;;;;;;;40.60;19.15;;;8.00;99.90;;;;;;5067425;28;20405;-72
2022/01/04 03:23:57;;;;;;;42.53;21.85;;;8.00;99.90;;;;;;5074545;28;20185;-72
2022/01/04 03:26:23;;;;;;;61.85;22.17;;;8.00;99.90;;;;;;5059502;28;20032;-72
2022/01/04 03:28:48;;;;;;;55.03;21.52;;;8.10;99.90;;;;;;5069782;28;20051;-71
2022/01/04 03:31:14;;;;;;;48.53;22.30;;;8.10;99.90;;;;;;5064531;28;20098;-72
2022/01/04 03:33:40;;;;;;;61.28;23.83;;;8.10;99.90;;;;;;5055694;28;20053;-72
2022/01/04 03:36:06;;;;;;;45.65;23.25;;;8.10;99.90;;;;;;5058886;28;20572;-72
2022/01/04 03:38:32;;;;;;;61.80;22.25;;;8.10;99.90;;;;;;5049034;28;20047;-71
2022/01/04 03:40:57;;;;;;;59.13;22.35;;;8.10;99.90;;;;;;5065648;28;20131;-72
2022/01/04 03:43:23;;;;;;;63.17;23.00;;;8.10;99.90;;;;;;5066802;28;20108;-72
2022/01/04 03:45:49;;;;;;;49.50;21.60;;;8.10;99.90;;;;;;5067424;28;20086;-71
2022/01/04 03:48:15;;;;;;;57.50;23.88;;;8.10;99.90;;;;;;5067800;28;20136;-71
2022/01/04 03:50:41;;;;;;;51.83;21.92;;;8.10;99.90;;;;;;5067161;28;20524;-72
2022/01/04 03:53:07;;;;;;;59.90;23.67;;;8.10;99.90;;;;;;5063087;28;20047;-71
2022/01/04 03:55:33;;;;;;;51.13;22.15;;;8.10;99.90;;;;;;5066795;28;20036;-72
2022/01/04 03:57:59;;;;;;;56.15;24.73;;;8.10;99.90;;;;;;5066756;28;20041;-72
2022/01/04 04:00:25;;;;;;;50.40;24.35;;;8.10;99.90;;;;;;5067895;28;20048;-71
2022/01/04 04:02:51;;;;;;;60.15;24.10;;;8.10;99.90;;;;;;5066691;28;20149;-71
2022/01/04 04:05:16;;;;;;;48.55;23.55;;;8.10;99.90;;;;;;5051019;28;20036;-72
2022/01/04 04:07:43;;;;;;;52.50;23.23;;;8.10;99.90;;;;;;5065430;28;20036;-72
2022/01/04 04:10:09;;;;;;;46.55;24.15;;;8.10;99.90;;;;;;5063860;28;20159;-72
2022/01/04 04:12:35;;;;;;;46.83;23.05;;;8.00;99.90;;;;;;5062526;28;20045;-72
2022/01/04 04:15:04;;;;;;;51.03;25.23;;;8.10;99.90;;;;;;5062943;28;20059;-72
2022/01/04 04:17:31;;;;;;;50.63;23.83;;;8.10;99.90;;;;;;5054252;28;20053;-72
2022/01/04 04:19:56;;;;;;;54.30;23.80;;;8.00;99.90;;;;;;5066733;28;20051;-72
2022/01/04 04:22:22;;;;;;;60.50;24.05;;;8.10;99.90;;;;;;5066690;28;20124;-72
2022/01/04 04:24:48;;;;;;;70.22;25.77;;;8.00;99.90;;;;;;5067639;28;20045;-72
2022/01/04 04:27:14;;;;;;;66.20;26.05;;;8.10;99.90;;;;;;5065989;28;20127;-72
2022/01/04 04:29:40;;;;;;;53.92;25.42;;;8.10;99.90;;;;;;5065781;28;20068;-72
2022/01/04 04:32:06;;;;;;;60.20;24.23;;;8.00;99.90;;;;;;5068498;28;20060;-72
2022/01/04 04:34:33;;;;;;;51.25;24.48;;;8.00;99.90;;;;;;5060364;28;20040;-72
2022/01/04 04:37:02;;;;;;;52.42;25.60;;;8.00;99.90;;;;;;5054426;28;20055;-72
2022/01/04 04:39:28;;;;;;;54.55;25.83;;;8.00;99.90;;;;;;5065645;28;20055;-72
2022/01/04 04:41:53;;;;;;;54.45;24.85;;;8.00;99.90;;;;;;5064840;28;20045;-72
2022/01/04 04:44:19;;;;;;;56.15;25.67;;;8.00;99.90;;;;;;5065920;28;20931;-72
2022/01/04 04:46:45;;;;;;;56.17;25.73;;;8.00;99.90;;;;;;5064522;28;20052;-72
2022/01/04 04:49:11;;;;;;;51.58;25.83;;;8.00;99.90;;;;;;5064150;28;20067;-72
2022/01/04 04:51:37;;;;;;;60.20;27.17;;;8.00;99.90;;;;;;5060640;28;20040;-72
2022/01/04 04:54:04;;;;;;;64.07;27.50;;;8.00;99.90;;;;;;5061497;28;20588;-72
2022/01/04 04:56:30;;;;;;;63.00;27.33;;;8.00;99.90;;;;;;5063778;28;20077;-72
2022/01/04 04:58:56;;;;;;;60.78;28.40;;;8.00;99.90;;;;;;5065880;28;20043;-72
2022/01/04 05:01:21;;;;;;;66.97;28.13;;;8.00;99.90;;;;;;5066872;28;20052;-72
2022/01/04 05:03:47;;;;;;;59.08;29.20;;;8.00;99.90;;;;;;5064689;28;20048;-72
2022/01/04 05:06:12;;;;;;;68.40;31.13;;;8.00;99.90;;;;;;5072918;28;20425;-72
2022/01/04 05:08:38;;;;;;;67.88;29.45;;;8.00;99.90;;;;;;5072412;28;20076;-72
2022/01/04 05:11:04;;;;;;;64.40;29.42;;;8.00;99.90;;;;;;5060161;28;20689;-72
2022/01/04 05:13:30;;;;;;;64.47;30.67;;;8.00;99.90;;;;;;5060300;28;20040;-72
2022/01/04 05:15:55;;;;;;;74.70;31.00;;;8.00;99.90;;;;;;5066559;28;20119;-72
2022/01/04 05:18:21;;;;;;;64.10;31.88;;;8.00;99.90;;;;;;5049727;28;20120;-72
2022/01/04 05:20:47;;;;;;;65.75;31.67;;;8.00;99.90;;;;;;5064912;28;20114;-73
2022/01/04 05:23:12;;;;;;;59.22;32.55;;;8.00;99.90;;;;;;5067261;28;20040;-73
2022/01/04 05:25:38;;;;;;;82.38;36.40;;;8.00;99.90;;;;;;5064587;28;20051;-73
2022/01/04 05:28:04;;;;;;;82.05;34.97;;;8.00;99.90;;;;;;5059865;28;20488;-73
2022/01/04 05:30:30;;;;;;;73.78;32.83;;;8.00;99.90;;;;;;5066866;28;20083;-72
2022/01/04 05:32:55;;;;;;;63.15;31.70;;;8.00;99.90;;;;;;5069512;28;20072;-72
2022/01/04 05:35:21;;;;;;;65.82;32.28;;;8.00;99.90;;;;;;5067540;28;20055;-72
2022/01/04 05:37:47;;;;;;;68.93;33.72;;;8.00;99.90;;;;;;5070004;28;20052;-73
2022/01/04 05:40:12;;;;;;;78.68;34.25;;;8.00;99.90;;;;;;5070044;28;20099;-72
2022/01/04 05:42:38;;;;;;;70.22;33.35;;;8.00;99.90;;;;;;5065583;28;20048;-72
2022/01/04 05:45:04;;;;;;;73.88;34.42;;;7.90;99.90;;;;;;5061447;28;20748;-72
2022/01/04 05:47:32;;;;;;;62.10;30.98;;;7.90;99.90;;;;;;5072655;28;20059;-72
2022/01/04 05:49:58;;;;;;;70.85;31.08;;;7.90;99.90;;;;;;5065704;28;20041;-72
2022/01/04 05:52:23;;;;;;;58.33;31.40;;;7.90;99.90;;;;;;5067141;28;20045;-72
2022/01/04 05:54:51;;;;;;;62.35;31.17;;;7.90;99.90;;;;;;5066917;28;20032;-72
2022/01/04 05:57:16;;;;;;;61.13;32.83;;;7.90;99.90;;;;;;5068142;28;20041;-72
2022/01/04 05:59:42;;;;;;;63.72;31.40;;;7.90;99.90;;;;;;5071349;28;20097;-72
2022/01/04 06:02:08;;;;;;;83.18;32.22;;;7.90;99.90;;;;;;5051063;28;20540;-72
2022/01/04 06:04:34;;;;;;;63.25;29.85;;;7.90;99.90;;;;;;5065734;28;20049;-72
2022/01/04 06:06:59;;;;;;;64.93;32.22;;;7.90;99.90;;;;;;5056020;28;20043;-72
2022/01/04 06:09:29;;;;;;;72.68;33.38;;;7.90;99.90;;;;;;5056915;28;20455;-72
2022/01/04 06:11:59;;;;;;;68.32;30.05;;;7.90;99.90;;;;;;5068966;28;20497;-72
2022/01/04 06:17:10;;;;;;;71.20;29.98;;;7.80;99.90;;;;;;5061197;28;20066;-72
2022/01/04 06:19:40;;;;;;;68.93;31.02;;;7.80;99.90;;;;;;5085474;28;20048;-72
2022/01/04 06:22:06;;;;;;;62.70;30.67;;;7.80;99.90;;;;;;5068988;28;20052;-72
2022/01/04 06:24:33;;;;;;;56.45;30.05;;;7.80;99.90;;;;;;5067442;28;20135;-72
2022/01/04 06:26:58;;;;;;;51.97;26.67;;;7.80;99.90;;;;;;5048942;28;20136;-72
2022/01/04 06:29:24;;;;;;;70.10;29.92;;;7.70;99.90;;;;;;5068238;28;20132;-72
2022/01/04 06:31:50;;;;;;;66.93;31.13;;;7.70;99.90;;;;;;5069462;28;20032;-72
2022/01/04 06:34:16;;;;;;;57.80;30.55;;;7.70;99.90;;;;;;5071566;28;20041;-72
2022/01/04 06:36:42;;;;;;;57.65;30.48;;;7.70;99.90;;;;;;5067888;28;20123;-72
2022/01/04 06:39:07;;;;;;;49.90;27.50;;;7.70;99.90;;;;;;5061197;28;20115;-72
2022/01/04 06:41:33;;;;;;;61.38;30.13;;;7.70;99.90;;;;;;5066746;28;20041;-72
2022/01/04 06:43:59;;;;;;;60.80;32.03;;;7.80;99.90;;;;;;5055068;28;20413;-72
2022/01/04 06:46:25;;;;;;;71.20;32.72;;;7.70;99.90;;;;;;5064842;28;20098;-72
2022/01/04 06:48:51;;;;;;;77.30;30.25;;;7.80;99.90;;;;;;5067974;28;20498;-72
2022/01/04 06:51:17;;;;;;;59.88;27.98;;;7.80;99.90;;;;;;5067527;28;20777;-72
2022/01/04 06:53:44;;;;;;;65.45;30.95;;;7.70;99.90;;;;;;5067798;28;20048;-72
2022/01/04 06:56:10;;;;;;;60.85;30.23;;;7.80;99.90;;;;;;5066610;28;20033;-72
2022/01/04 06:58:35;;;;;;;59.50;31.92;;;7.70;99.90;;;;;;5067666;28;20093;-72
2022/01/04 07:01:01;;;;;;;74.55;32.22;;;7.70;99.90;;;;;;5060358;28;20044;-72
2022/01/04 07:03:27;;;;;;;67.40;32.40;;;7.70;99.90;;;;;;5067261;28;20123;-72
2022/01/04 07:05:52;;;;;;;66.57;32.10;;;7.70;99.90;;;;;;5070797;28;20064;-72
2022/01/04 07:08:18;;;;;;;76.07;34.85;;;7.70;99.90;;;;;;5068731;28;20083;-72
2022/01/04 07:10:44;;;;;;;71.00;30.60;;;7.70;99.90;;;;;;5067330;28;20044;-72
2022/01/04 07:13:09;;;;;;;92.28;35.35;;;7.70;99.90;;;;;;5070089;28;20855;-72
2022/01/04 07:15:36;;;;;;;74.75;34.97;;;7.70;99.90;;;;;;5067011;28;20109;-72
2022/01/04 07:18:02;;;;;;;77.93;34.92;;;7.60;99.90;;;;;;5069338;28;20117;-72
2022/01/04 07:20:27;;;;;;;66.07;35.10;;;7.60;99.90;;;;;;5067324;28;20502;-72
2022/01/04 07:22:53;;;;;;;69.30;34.90;;;7.60;99.90;;;;;;5065450;28;20099;-72
2022/01/04 07:25:19;;;;;;;66.50;35.00;;;7.50;99.90;;;;;;5053635;28;20048;-72
2022/01/04 07:27:44;;;;;;;69.75;36.70;;;7.50;99.90;;;;;;5068384;28;20567;-72
2022/01/04 07:30:11;;;;;;;68.05;35.55;;;7.50;99.90;;;;;;5068045;28;20053;-73
2022/01/04 07:32:36;;;;;;;82.05;36.78;;;7.60;99.90;;;;;;5065090;28;20921;-72
2022/01/04 07:35:02;;;;;;;71.63;37.15;;;7.60;99.90;;;;;;5061342;28;20045;-72
2022/01/04 07:37:28;;;;;;;74.70;37.67;;;7.60;99.90;;;;;;5068087;28;20060;-72
2022/01/04 07:39:54;;;;;;;75.63;39.58;;;7.60;99.90;;;;;;5067094;28;20036;-72
2022/01/04 07:42:19;;;;;;;85.22;39.95;;;7.70;99.90;;;;;;5079426;28;20062;-72
2022/01/04 07:44:45;;;;;;;76.20;37.58;;;7.70;99.90;;;;;;5068775;28;20055;-72
2022/01/04 07:47:11;;;;;;;66.88;35.35;;;7.70;99.90;;;;;;5061341;28;20051;-72
2022/01/04 07:49:37;;;;;;;72.80;34.30;;;7.70;99.90;;;;;;5055403;28;20056;-73
2022/01/04 07:52:02;;;;;;;70.47;33.25;;;7.80;99.90;;;;;;5063053;28;20063;-72
2022/01/04 07:54:29;;;;;;;68.38;34.63;;;7.70;99.90;;;;;;5066389;28;20105;-72
2022/01/04 07:56:55;;;;;;;70.43;32.80;;;7.70;99.90;;;;;;5066575;28;20048;-72
2022/01/04 07:59:21;;;;;;;73.57;33.10;;;7.60;99.90;;;;;;5066544;28;20050;-72
2022/01/04 08:01:47;;;;;;;64.07;31.83;;;7.60;99.90;;;;;;5067004;28;20048;-72
2022/01/04 08:04:13;;;;;;;72.10;34.63;;;7.60;99.90;;;;;;5059026;28;20056;-72
2022/01/04 08:06:41;;;;;;;69.65;36.17;;;7.70;99.90;;;;;;5067012;28;20132;-72
2022/01/04 08:09:07;;;;;;;;;;;7.70;99.90;;;;;;5065727;28;20066;-72
2022/01/04 08:11:32;;;;;;;65.68;35.38;;;7.70;99.90;;;;;;5067068;28;20368;-72
2022/01/04 08:13:58;;;;;;;67.70;35.22;;;7.70;99.90;;;;;;5066673;28;20143;-72
2022/01/04 08:16:23;;;;;;;73.22;37.10;;;7.70;99.90;;;;;;5065119;28;20056;-72
2022/01/04 08:18:49;;;;;;;71.78;37.03;;;7.70;99.90;;;;;;5065416;28;20052;-72
2022/01/04 08:21:15;;;;;;;69.45;37.67;;;7.70;99.90;;;;;;5066593;28;20463;-72
2022/01/04 08:23:40;;;;;;;64.50;35.92;;;7.70;99.90;;;;;;5061536;28;20040;-72
2022/01/04 08:26:06;;;;;;;72.28;39.80;;;7.70;99.90;;;;;;5068433;28;20048;-72
2022/01/04 08:28:33;;;;;;;77.32;37.25;;;7.70;99.90;;;;;;5067493;28;20048;-72
2022/01/04 08:30:59;;;;;;;68.00;36.20;;;7.80;99.90;;;;;;5067622;28;20043;-72
2022/01/04 08:33:24;;;;;;;68.38;35.85;;;7.80;99.90;;;;;;5066499;28;20501;-72
2022/01/04 08:35:50;;;;;;;61.03;35.22;;;7.70;99.90;;;;;;5059804;28;20075;-72
2022/01/04 08:38:16;;;;;;;81.63;39.05;;;7.80;99.90;;;;;;5061204;28;20446;-72
2022/01/04 08:40:42;;;;;;;76.40;39.35;;;7.80;99.90;;;;;;5066327;28;20049;-72
2022/01/04 08:43:07;;;;;;;66.95;37.20;;;7.70;99.90;;;;;;5066182;28;20076;-73
2022/01/04 08:45:34;;;;;;;74.68;37.42;;;7.80;99.90;;;;;;5065453;28;20080;-73
2022/01/04 08:48:01;;;;;;;70.47;36.05;;;7.70;99.90;;;;;;5067054;28;20787;-72
2022/01/04 08:50:28;;;;;;;71.03;37.13;;;7.80;99.90;;;;;;5064280;28;20414;-73
2022/01/04 08:52:54;;;;;;;67.70;36.03;;;7.80;99.90;;;;;;5064887;28;20048;-72
2022/01/04 08:55:21;;;;;;;72.30;35.55;;;7.80;99.90;;;;;;5061801;28;20057;-72
2022/01/04 08:57:47;;;;;;;68.28;36.22;;;7.80;99.90;;;;;;5065164;28;20064;-72
2022/01/04 09:00:14;;;;;;;72.07;34.70;;;7.80;99.90;;;;;;5067138;28;20121;-72
2022/01/04 09:02:40;;;;;;;67.10;35.42;;;7.80;99.90;;;;;;5064463;28;20099;-72
2022/01/04 09:05:06;;;;;;;76.65;37.38;;;7.80;99.90;;;;;;5065470;28;20060;-72
2022/01/04 09:07:32;;;;;;;64.70;35.25;;;7.80;99.90;;;;;;5067195;28;20494;-72
2022/01/04 09:09:58;;;;;;;29.20;15.13;;;7.80;99.90;;;;;;5068092;28;20976;-72
2022/01/04 09:12:30;;;;;;;18.83;11.20;;;7.70;99.90;;;;;;5066942;28;20040;-72
2022/01/04 09:20:09;;;;;;;17.65;7.50;;;7.50;99.90;;;;;;5060737;28;20441;-72
2022/01/04 09:22:36;;;;;;;17.17;8.13;;;7.40;99.90;;;;;;5078122;28;20149;-72
2022/01/04 09:25:02;;;;;;;18.45;8.63;;;7.40;99.90;;;;;;5068350;28;20460;-71
2022/01/04 09:27:29;;;;;;;18.77;10.70;;;7.30;99.90;;;;;;5067832;28;20056;-72
2022/01/04 09:29:55;;;;;;;20.15;10.52;;;7.30;99.90;;;;;;5059604;28;20626;-72
2022/01/04 09:32:21;;;;;;;16.20;9.07;;;7.20;99.90;;;;;;5070199;28;20083;-72
2022/01/04 09:34:48;;;;;;;13.30;7.50;;;7.20;99.90;;;;;;5067564;28;20074;-71
2022/01/04 09:37:14;;;;;;;16.23;6.63;;;7.20;99.90;;;;;;5066291;28;20127;-72
2022/01/04 09:39:40;;;;;;;13.40;6.28;;;7.20;99.90;;;;;;5068740;28;20069;-72
2022/01/04 09:42:09;;;;;;;15.80;6.97;;;7.20;99.90;;;;;;5068493;28;20511;-72
2022/01/04 09:44:36;;;;;;;13.20;6.82;;;7.20;99.90;;;;;;5066381;28;20047;-72
2022/01/04 09:47:03;;;;;;;20.92;5.38;;;7.20;99.90;;;;;;5065545;28;20124;-72
2022/01/04 09:49:30;;;;;;;18.55;6.60;;;7.20;99.90;;;;;;5070582;28;20258;-72
2022/01/04 09:51:56;;;;;;;24.65;7.05;;;7.20;99.90;;;;;;5068285;28;20060;-71
2022/01/04 09:54:26;;;;;;;19.67;6.32;;;7.20;99.90;;;;;;5065242;28;20056;-72
2022/01/04 09:56:53;;;;;;;19.38;8.27;;;7.30;99.90;;;;;;5067515;28;20044;-72
2022/01/04 09:59:19;;;;;;;17.08;8.07;;;7.30;99.90;;;;;;5068361;28;20064;-72
2022/01/04 10:01:51;;;;;;;17.20;6.63;;;7.30;99.90;;;;;;5065076;28;20033;-72
2022/01/04 10:04:23;;;;;;;20.63;6.35;;;7.30;99.90;;;;;;5066650;28;20057;-72
2022/01/04 10:07:07;;;;;;;16.98;7.22;;;7.40;99.90;;;;;;5069528;28;20112;-72
2022/01/04 10:09:37;;;;;;;26.13;8.00;;;7.40;99.90;;;;;;5075784;28;20409;-72
2022/01/04 10:12:05;;;;;;;17.65;6.47;;;7.40;99.90;;;;;;5070302;28;20059;-72
2022/01/04 10:14:43;;;;;;;22.00;6.63;;;7.40;99.90;;;;;;5067712;28;20046;-72
2022/01/04 10:17:31;;;;;;;34.63;8.38;;;7.40;99.90;;;;;;5066028;28;20053;-72
2022/01/04 10:19:59;;;;;;;19.42;6.20;;;7.40;99.90;;;;;;5065520;28;20061;-72
2022/01/04 10:22:25;;;;;;;;;;;7.40;99.90;;;;;;5068373;28;20037;-71
2022/01/04 10:25:09;;;;;;;17.85;6.80;;;7.40;99.90;;;;;;5069177;28;19970;-71
2022/01/04 10:27:46;;;;;;;25.02;7.45;;;7.40;99.90;;;;;;5066975;28;20140;-72
2022/01/04 10:30:30;;;;;;;13.98;6.18;;;7.40;99.90;;;;;;5062736;28;20044;-72
2022/01/04 10:33:01;;;;;;;16.15;6.18;;;7.40;99.90;;;;;;5058806;28;20047;-72
2022/01/04 10:35:35;;;;;;;19.48;5.13;;;7.40;99.90;;;;;;5067600;28;20613;-72
2022/01/04 10:38:21;;;;;;;10.02;3.33;;;7.40;99.90;;;;;;5065691;28;20734;-72
2022/01/04 10:40:50;;;;;;;4.93;2.17;;;7.30;99.90;;;;;;5067905;28;20041;-72
2022/01/04 10:43:23;;;;;;;9.13;3.58;;;7.30;99.90;;;;;;5067795;28;20139;-72
2022/01/04 10:45:50;;;;;;;10.70;3.10;;;7.30;99.90;;;;;;5066450;28;20120;-72
2022/01/04 10:48:27;;;;;;;8.60;3.45;;;7.20;99.90;;;;;;5067036;28;20989;-72
2022/01/04 10:50:59;;;;;;;9.63;3.13;;;7.20;99.90;;;;;;5064850;28;20401;-72
2022/01/04 10:53:24;;;;;;;19.67;3.25;;;7.20;99.90;;;;;;5062465;28;20098;-72
2022/01/04 10:55:54;;;;;;;14.68;3.55;;;7.20;99.90;;;;;;5065975;28;20057;-71
2022/01/04 10:58:47;;;;;;;9.38;3.28;;;7.20;99.90;;;;;;5069375;28;20044;-71
2022/01/04 11:01:16;;;;;;;14.30;3.22;;;7.20;99.90;;;;;;5067856;28;20063;-72
2022/01/04 11:03:44;;;;;;;10.38;3.50;;;7.20;99.90;;;;;;5073932;28;20052;-72
2022/01/04 11:06:30;;;;;;;5.57;3.17;;;7.20;99.90;;;;;;5068140;28;20459;-72
2022/01/04 11:08:57;;;;;;;12.38;3.25;;;7.30;99.90;;;;;;5066275;28;20059;-72
2022/01/04 11:11:24;;;;;;;6.32;2.70;;;7.20;99.90;;;;;;5067482;28;20497;-71
2022/01/04 11:13:53;;;;;;;10.55;3.17;;;7.20;99.90;;;;;;5068963;28;20044;-72
2022/01/04 11:16:23;;;;;;;12.52;2.60;;;7.10;99.90;;;;;;5066553;28;20544;-71
2022/01/04 11:18:53;;;;;;;9.70;3.03;;;7.10;99.90;;;;;;5063873;28;20520;-72
2022/01/04 11:21:31;;;;;;;5.53;2.30;;;7.00;99.90;;;;;;5065644;28;20055;-71
2022/01/04 11:23:59;;;;;;;5.00;2.58;;;6.90;99.90;;;;;;5068409;28;20523;-72
2022/01/04 11:26:26;;;;;;;7.40;3.47;;;6.90;99.90;;;;;;5071190;28;20887;-72
2022/01/04 11:28:53;;;;;;;5.25;3.45;;;6.90;99.90;;;;;;5061445;28;20115;-72
2022/01/04 11:31:45;;;;;;;4.57;2.83;;;6.80;99.90;;;;;;5064965;28;20037;-72
2022/01/04 11:34:43;;;;;;;9.07;2.95;;;6.80;99.90;;;;;;5063868;28;20044;-72
2022/01/04 11:37:19;;;;;;;5.20;2.25;;;6.70;99.90;;;;;;5066126;28;20052;-72
2022/01/04 11:39:45;;;;;;;5.40;2.30;;;6.60;99.90;;;;;;5070421;28;20708;-72
2022/01/04 11:42:35;;;;;;;14.60;2.35;;;6.60;99.90;;;;;;5068655;28;20127;-72
2022/01/04 11:45:02;;;;;;;9.40;1.80;;;6.60;99.90;;;;;;5057792;28;20064;-72
2022/01/04 11:47:30;;;;;;;5.93;1.60;;;6.60;99.90;;;;;;5056528;28;20040;-72
2022/01/04 11:50:10;;;;;;;6.20;1.65;;;6.70;99.90;;;;;;5067683;28;20413;-72
2022/01/04 11:52:42;;;;;;;7.45;1.58;;;6.80;99.90;;;;;;5063723;28;20057;-72
2022/01/04 11:55:37;;;;;;;2.85;1.83;;;6.80;99.90;;;;;;5065973;28;20040;-72
2022/01/04 11:58:13;;;;;;;5.65;1.80;;;6.80;99.90;;;;;;5057253;28;20480;-72
2022/01/04 12:00:43;;;;;;;2.28;1.20;;;6.80;99.90;;;;;;5053497;28;20071;-72
2022/01/04 12:03:11;;;;;;;9.70;1.98;;;6.80;99.90;;;;;;5056287;28;20045;-72
2022/01/04 12:05:39;;;;;;;9.15;1.73;;;6.80;99.90;;;;;;5064684;28;20044;-72
2022/01/04 12:08:19;;;;;;;5.70;1.80;;;6.80;99.90;;;;;;5064128;28;20044;-72
2022/01/04 12:10:46;;;;;;;6.43;2.03;;;6.80;99.90;;;;;;5065302;28;20089;-72
2022/01/04 12:13:17;;;;;;;8.48;1.55;;;6.80;99.90;;;;;;5069032;28;20059;-72
2022/01/04 12:15:57;;;;;;;4.13;2.33;;;6.80;99.90;;;;;;5079666;28;20497;-72
2022/01/04 12:18:31;;;;;;;6.13;2.17;;;6.70;99.90;;;;;;5065312;28;20079;-72
2022/01/04 12:21:03;;;;;;;4.40;1.95;;;6.60;99.90;;;;;;5063870;28;20529;-72
2022/01/04 12:23:33;;;;;;;1.88;1.20;;;6.50;99.90;;;;;;5064047;28;20553;-72
2022/01/04 12:26:04;;;;;;;3.90;1.58;;;6.40;99.90;;;;;;5058937;28;20061;-72
2022/01/04 12:28:31;;;;;;;1.98;1.02;;;6.40;99.90;;;;;;5061593;28;20075;-72
2022/01/04 12:31:23;;;;;;;9.95;2.03;;;6.20;99.90;;;;;;5066440;28;20117;-72
2022/01/04 12:34:07;;;;;;;9.25;1.17;;;6.10;99.90;;;;;;5066942;28;20056;-72
2022/01/04 12:36:41;;;;;;;5.47;1.63;;;6.00;99.90;;;;;;5065349;28;20833;-72
2022/01/04 12:39:08;;;;;;;3.28;1.58;;;6.00;99.90;;;;;;5067035;28;20047;-72
2022/01/04 12:41:35;;;;;;;15.40;2.15;;;5.90;99.90;;;;;;5064009;28;20042;-72
2022/01/04 12:44:02;;;;;;;8.57;1.35;;;5.90;99.90;;;;;;5063883;28;20049;-72
2022/01/04 12:46:41;;;;;;;5.32;1.63;;;6.00;99.90;;;;;;5067960;28;20065;-72
2022/01/04 12:49:08;;;;;;;6.68;1.88;;;6.00;99.90;;;;;;5071496;28;20486;-72
2022/01/04 12:51:37;;;;;;;6.47;1.80;;;6.10;99.90;;;;;;5071439;28;20468;-72